sensor_id;sensor_type;location;lat;lon;timestamp;pressure;altitude;pressure_sealevel;temperature;humidity
47785;BME280;35233;55.686;37.848;2023-04-04T00:01:11;99622.22;;;19.26;47.01
47785;BME280;35233;55.686;37.848;2023-04-04T00:03:37;99623.31;;;19.23;46.88
47785;BME280;35233;55.686;37.848;2023-04-04T00:06:03;99635.59;;;19.26;46.89
47785;BME280;35233;55.686;37.848;2023-04-04T00:08:28;99630.25;;;19.26;46.74
47785;BME280;35233;55.686;37.848;2023-04-04T00:10:58;99627.41;;;19.29;47.08
47785;BME280;35233;55.686;37.848;2023-04-04T00:13:25;99619.19;;;19.17;46.95
47785;BME280;35233;55.686;37.848;2023-04-04T00:15:51;99623.31;;;19.23;46.89
47785;BME280;35233;55.686;37.848;2023-04-04T00:18:17;99627.69;;;19.24;47.09
47785;BME280;35233;55.686;37.848;2023-04-04T00:20:42;99623.31;;;19.23;46.86
47785;BME280;35233;55.686;37.848;2023-04-04T00:23:07;99618.50;;;19.14;47.17
47785;BME280;35233;55.686;37.848;2023-04-04T00:25:37;99631.41;;;19.21;47.10
47785;BME280;35233;55.686;37.848;2023-04-04T00:28:03;99631.41;;;19.21;47.12
47785;BME280;35233;55.686;37.848;2023-04-04T00:30:29;99627.31;;;19.16;47.16
47785;BME280;35233;55.686;37.848;2023-04-04T00:32:55;99613.16;;;19.14;47.05
47785;BME280;35233;55.686;37.848;2023-04-04T00:35:21;99619.09;;;19.19;46.91
47785;BME280;35233;55.686;37.848;2023-04-04T00:37:47;99628.75;;;19.21;46.95
47785;BME280;35233;55.686;37.848;2023-04-04T00:40:12;99629.78;;;19.19;47.07
47785;BME280;35233;55.686;37.848;2023-04-04T00:42:38;99614.03;;;19.14;47.04
47785;BME280;35233;55.686;37.848;2023-04-04T00:45:06;99622.94;;;19.15;47.04
47785;BME280;35233;55.686;37.848;2023-04-04T00:47:32;99600.47;;;19.03;47.35
47785;BME280;35233;55.686;37.848;2023-04-04T00:49:58;99623.69;;;19.17;47.02
47785;BME280;35233;55.686;37.848;2023-04-04T00:52:24;99615.28;;;19.09;47.21
47785;BME280;35233;55.686;37.848;2023-04-04T00:54:49;99622.16;;;19.13;47.04
47785;BME280;35233;55.686;37.848;2023-04-04T00:57:16;99621.59;;;19.08;47.32
47785;BME280;35233;55.686;37.848;2023-04-04T00:59:42;99631.03;;;19.13;47.30
47785;BME280;35233;55.686;37.848;2023-04-04T01:02:07;99615.28;;;19.09;46.97
47785;BME280;35233;55.686;37.848;2023-04-04T01:04:34;99619.03;;;19.06;47.05
47785;BME280;35233;55.686;37.848;2023-04-04T01:06:59;99615.50;;;19.06;47.25
47785;BME280;35233;55.686;37.848;2023-04-04T01:09:27;99624.25;;;19.08;47.26
47785;BME280;35233;55.686;37.848;2023-04-04T01:11:53;99628.88;;;19.06;47.43
47785;BME280;35233;55.686;37.848;2023-04-04T01:14:20;99620.06;;;19.04;47.63
47785;BME280;35233;55.686;37.848;2023-04-04T01:16:47;99606.69;;;19.04;47.19
47785;BME280;35233;55.686;37.848;2023-04-04T01:19:28;99614.53;;;19.07;47.23
47785;BME280;35233;55.686;37.848;2023-04-04T01:21:55;99612.03;;;19.04;47.34
47785;BME280;35233;55.686;37.848;2023-04-04T01:24:22;99611.94;;;19.05;47.32
47785;BME280;35233;55.686;37.848;2023-04-04T01:26:50;99608.59;;;19.02;47.47
47785;BME280;35233;55.686;37.848;2023-04-04T01:29:15;99609.56;;;19.00;47.19
47785;BME280;35233;55.686;37.848;2023-04-04T01:31:47;99613.00;;;19.03;47.13
47785;BME280;35233;55.686;37.848;2023-04-04T01:34:31;99605.91;;;19.02;47.07
47785;BME280;35233;55.686;37.848;2023-04-04T01:39:46;99604.97;;;19.03;47.42
47785;BME280;35233;55.686;37.848;2023-04-04T01:42:12;99595.22;;;19.02;47.02
47785;BME280;35233;55.686;37.848;2023-04-04T01:44:38;99603.03;;;19.05;46.94
47785;BME280;35233;55.686;37.848;2023-04-04T01:47:07;99599.63;;;19.03;47.25
47785;BME280;35233;55.686;37.848;2023-04-04T01:49:33;99593.69;;;18.97;46.96
47785;BME280;35233;55.686;37.848;2023-04-04T01:51:59;99602.59;;;18.98;47.07
47785;BME280;35233;55.686;37.848;2023-04-04T01:54:25;99598.09;;;18.98;47.08
47785;BME280;35233;55.686;37.848;2023-04-04T01:56:52;99584.63;;;18.86;47.03
47785;BME280;35233;55.686;37.848;2023-04-04T01:59:18;99603.34;;;19.00;47.20
47785;BME280;35233;55.686;37.848;2023-04-04T02:01:43;99599.25;;;18.94;47.29
47785;BME280;35233;55.686;37.848;2023-04-04T02:04:09;99608.78;;;18.98;47.07
47785;BME280;35233;55.686;37.848;2023-04-04T02:06:38;99607.47;;;18.91;47.23
47785;BME280;35233;55.686;37.848;2023-04-04T02:09:04;99616.94;;;18.97;47.22
47785;BME280;35233;55.686;37.848;2023-04-04T02:11:31;99612.63;;;18.94;47.09
47785;BME280;35233;55.686;37.848;2023-04-04T02:13:56;99606.78;;;18.88;46.89
47785;BME280;35233;55.686;37.848;2023-04-04T02:16:22;99612.63;;;18.94;47.32
47785;BME280;35233;55.686;37.848;2023-04-04T02:18:48;99619.88;;;18.92;47.18
47785;BME280;35233;55.686;37.848;2023-04-04T02:21:13;99617.97;;;18.94;47.06
47785;BME280;35233;55.686;37.848;2023-04-04T02:23:39;99617.41;;;18.89;47.13
47785;BME280;35233;55.686;37.848;2023-04-04T02:26:05;99623.41;;;18.93;47.02
47785;BME280;35233;55.686;37.848;2023-04-04T02:28:31;99616.25;;;18.93;47.18
47785;BME280;35233;55.686;37.848;2023-04-04T02:31:00;99616.44;;;18.90;47.11
47785;BME280;35233;55.686;37.848;2023-04-04T02:33:29;99605.94;;;18.87;47.02
47785;BME280;35233;55.686;37.848;2023-04-04T02:35:58;99614.44;;;18.94;46.85
47785;BME280;35233;55.686;37.848;2023-04-04T02:38:24;99607.75;;;18.87;47.30
47785;BME280;35233;55.686;37.848;2023-04-04T02:40:50;99602.50;;;18.85;47.31
47785;BME280;35233;55.686;37.848;2023-04-04T02:43:16;99597.91;;;18.87;46.83
47785;BME280;35233;55.686;37.848;2023-04-04T02:45:41;99612.81;;;18.91;47.13
47785;BME280;35233;55.686;37.848;2023-04-04T02:48:07;99602.72;;;18.82;47.22
47785;BME280;35233;55.686;37.848;2023-04-04T02:50:32;99626.41;;;18.88;47.22
47785;BME280;35233;55.686;37.848;2023-04-04T02:53:02;99610.53;;;18.85;47.01
47785;BME280;35233;55.686;37.848;2023-04-04T02:55:28;99624.00;;;18.84;47.13
47785;BME280;35233;55.686;37.848;2023-04-04T02:57:54;99614.06;;;18.86;46.90
47785;BME280;35233;55.686;37.848;2023-04-04T03:00:20;99614.06;;;18.86;46.88
47785;BME280;35233;55.686;37.848;2023-04-04T03:02:52;99621.25;;;18.85;46.72
47785;BME280;35233;55.686;37.848;2023-04-04T03:05:18;99605.06;;;18.87;46.44
47785;BME280;35233;55.686;37.848;2023-04-04T03:07:43;99614.94;;;18.86;46.57
47785;BME280;35233;55.686;37.848;2023-04-04T03:10:09;99626.41;;;18.88;46.50
47785;BME280;35233;55.686;37.848;2023-04-04T03:12:34;99591.09;;;18.67;46.26
47785;BME280;35233;55.686;37.848;2023-04-04T03:15:00;99616.75;;;18.86;46.36
47785;BME280;35233;55.686;37.848;2023-04-04T03:17:26;99615.91;;;18.85;45.94
47785;BME280;35233;55.686;37.848;2023-04-04T03:19:51;99614.94;;;18.86;45.76
47785;BME280;35233;55.686;37.848;2023-04-04T03:22:17;99599.81;;;18.71;45.81
47785;BME280;35233;55.686;37.848;2023-04-04T03:24:42;99610.81;;;18.81;45.90
47785;BME280;35233;55.686;37.848;2023-04-04T03:27:08;99616.38;;;18.77;45.55
47785;BME280;35233;55.686;37.848;2023-04-04T03:29:33;99631.19;;;18.83;45.62
47785;BME280;35233;55.686;37.848;2023-04-04T03:31:59;99627.72;;;18.81;45.68
47785;BME280;35233;55.686;37.848;2023-04-04T03:34:25;99640.84;;;18.86;45.60
47785;BME280;35233;55.686;37.848;2023-04-04T03:36:51;99631.00;;;18.86;45.29
47785;BME280;35233;55.686;37.848;2023-04-04T03:39:17;99632.03;;;18.84;45.39
47785;BME280;35233;55.686;37.848;2023-04-04T03:41:43;99628.50;;;18.83;45.14
47785;BME280;35233;55.686;37.848;2023-04-04T03:44:08;99625.16;;;18.80;45.46
47785;BME280;35233;55.686;37.848;2023-04-04T03:46:34;99619.13;;;18.76;45.16
47785;BME280;35233;55.686;37.848;2023-04-04T03:48:59;99630.53;;;18.80;45.42
47785;BME280;35233;55.686;37.848;2023-04-04T03:51:25;99632.88;;;18.84;44.86
47785;BME280;35233;55.686;37.848;2023-04-04T03:53:54;99600.84;;;18.68;45.08
47785;BME280;35233;55.686;37.848;2023-04-04T03:56:20;99627.47;;;18.86;44.85
47785;BME280;35233;55.686;37.848;2023-04-04T03:58:49;99635.56;;;18.84;45.06
47785;BME280;35233;55.686;37.848;2023-04-04T04:01:14;99618.38;;;18.88;44.72
47785;BME280;35233;55.686;37.848;2023-04-04T04:03:40;99627.34;;;18.87;44.76
47785;BME280;35233;55.686;37.848;2023-04-04T04:06:06;99610.44;;;18.87;44.70
47785;BME280;35233;55.686;37.848;2023-04-04T04:08:31;99623.22;;;18.82;44.73
47785;BME280;35233;55.686;37.848;2023-04-04T04:11:05;99611.47;;;18.84;44.52
47785;BME280;35233;55.686;37.848;2023-04-04T04:13:31;99589.09;;;18.71;44.71
47785;BME280;35233;55.686;37.848;2023-04-04T04:15:56;99609.47;;;18.88;44.76
47785;BME280;35233;55.686;37.848;2023-04-04T04:18:22;99612.25;;;18.86;44.37
47785;BME280;35233;55.686;37.848;2023-04-04T04:20:47;99610.34;;;18.88;44.44
47785;BME280;35233;55.686;37.848;2023-04-04T04:23:12;99604.78;;;18.91;44.61
47785;BME280;35233;55.686;37.848;2023-04-04T04:25:38;99615.38;;;18.93;44.63
47785;BME280;35233;55.686;37.848;2023-04-04T04:28:03;99619.03;;;18.92;44.61
47785;BME280;35233;55.686;37.848;2023-04-04T04:30:29;99611.28;;;18.87;44.61
47785;BME280;35233;55.686;37.848;2023-04-04T04:32:54;99614.72;;;18.89;44.49
47785;BME280;35233;55.686;37.848;2023-04-04T04:35:20;99612.25;;;18.86;44.45
47785;BME280;35233;55.686;37.848;2023-04-04T04:37:46;99621.78;;;18.90;44.68
47785;BME280;35233;55.686;37.848;2023-04-04T04:40:14;99631.94;;;18.99;44.67
47785;BME280;35233;55.686;37.848;2023-04-04T04:42:44;99626.59;;;18.99;44.76
47785;BME280;35233;55.686;37.848;2023-04-04T04:45:10;99636.34;;;19.00;44.44
47785;BME280;35233;55.686;37.848;2023-04-04T04:47:36;99635.09;;;19.06;44.61
47785;BME280;35233;55.686;37.848;2023-04-04T04:50:02;99626.03;;;19.63;43.57
47785;BME280;35233;55.686;37.848;2023-04-04T04:52:27;99626.59;;;20.61;41.53
47785;BME280;35233;55.686;37.848;2023-04-04T04:54:55;99622.69;;;21.03;40.92
47785;BME280;35233;55.686;37.848;2023-04-04T04:57:21;99619.53;;;21.22;40.82
47785;BME280;35233;55.686;37.848;2023-04-04T04:59:47;99604.88;;;21.26;41.25
47785;BME280;35233;55.686;37.848;2023-04-04T05:02:13;99615.41;;;21.42;41.05
47785;BME280;35233;55.686;37.848;2023-04-04T05:04:39;99616.44;;;21.52;41.02
47785;BME280;35233;55.686;37.848;2023-04-04T05:07:05;99615.78;;;21.61;41.48
47785;BME280;35233;55.686;37.848;2023-04-04T05:09:32;99631.84;;;21.74;40.76
47785;BME280;35233;55.686;37.848;2023-04-04T05:11:58;99623.03;;;21.72;40.62
47785;BME280;35233;55.686;37.848;2023-04-04T05:14:23;99619.53;;;21.83;40.63
47785;BME280;35233;55.686;37.848;2023-04-04T05:16:49;99629.19;;;21.85;40.77
47785;BME280;35233;55.686;37.848;2023-04-04T05:19:15;99626.03;;;21.91;40.37
47785;BME280;35233;55.686;37.848;2023-04-04T05:21:40;99622.50;;;21.91;40.69
47785;BME280;35233;55.686;37.848;2023-04-04T05:24:06;99616.44;;;22.00;40.47
47785;BME280;35233;55.686;37.848;2023-04-04T05:26:32;99608.13;;;22.03;40.33
47785;BME280;35233;55.686;37.848;2023-04-04T05:28:57;99611.69;;;22.15;40.07
47785;BME280;35233;55.686;37.848;2023-04-04T05:31:24;99612.47;;;22.17;40.08
47785;BME280;35233;55.686;37.848;2023-04-04T05:33:49;99607.81;;;22.19;39.96
47785;BME280;35233;55.686;37.848;2023-04-04T05:36:15;99603.31;;;22.20;39.91
47785;BME280;35233;55.686;37.848;2023-04-04T05:38:40;99614.06;;;22.31;39.63
47785;BME280;35233;55.686;37.848;2023-04-04T05:41:06;99608.25;;;22.37;39.41
47785;BME280;35233;55.686;37.848;2023-04-04T05:43:31;99603.22;;;22.44;39.13
47785;BME280;35233;55.686;37.848;2023-04-04T05:45:57;99600.06;;;22.50;39.25
47785;BME280;35233;55.686;37.848;2023-04-04T05:48:22;99613.88;;;22.56;38.90
47785;BME280;35233;55.686;37.848;2023-04-04T05:50:48;99600.91;;;22.50;39.02
47785;BME280;35233;55.686;37.848;2023-04-04T05:53:13;99620.88;;;22.59;38.91
47785;BME280;35233;55.686;37.848;2023-04-04T05:55:39;99621.22;;;22.66;38.86
47785;BME280;35233;55.686;37.848;2023-04-04T05:58:04;99619.03;;;22.71;38.81
47785;BME280;35233;55.686;37.848;2023-04-04T06:00:30;99622.97;;;22.78;38.69
47785;BME280;35233;55.686;37.848;2023-04-04T06:02:56;99618.06;;;22.83;38.59
47785;BME280;35233;55.686;37.848;2023-04-04T06:05:23;99610.84;;;22.83;38.45
47785;BME280;35233;55.686;37.848;2023-04-04T06:07:49;99612.44;;;22.86;38.47
47785;BME280;35233;55.686;37.848;2023-04-04T06:10:15;99608.28;;;22.93;38.25
47785;BME280;35233;55.686;37.848;2023-04-04T06:12:40;99602.16;;;22.91;38.17
47785;BME280;35233;55.686;37.848;2023-04-04T06:15:06;99604.97;;;22.90;38.23
47785;BME280;35233;55.686;37.848;2023-04-04T06:17:33;99593.56;;;22.86;37.86
47785;BME280;35233;55.686;37.848;2023-04-04T06:19:58;99606.09;;;22.98;38.08
47785;BME280;35233;55.686;37.848;2023-04-04T06:22:24;99620.78;;;23.05;37.86
47785;BME280;35233;55.686;37.848;2023-04-04T06:24:49;99600.72;;;22.98;37.77
47785;BME280;35233;55.686;37.848;2023-04-04T06:27:15;99619.09;;;23.04;38.03
47785;BME280;35233;55.686;37.848;2023-04-04T06:29:41;99627.66;;;23.10;37.74
47785;BME280;35233;55.686;37.848;2023-04-04T06:32:07;99608.06;;;23.08;37.83
47785;BME280;35233;55.686;37.848;2023-04-04T06:34:32;99610.59;;;23.09;37.95
47785;BME280;35233;55.686;37.848;2023-04-04T06:36:58;99597.53;;;23.04;37.95
47785;BME280;35233;55.686;37.848;2023-04-04T06:39:23;99600.94;;;23.07;37.61
47785;BME280;35233;55.686;37.848;2023-04-04T06:41:48;99597.03;;;23.11;37.71
47785;BME280;35233;55.686;37.848;2023-04-04T06:44:14;99599.47;;;23.14;37.76
47785;BME280;35233;55.686;37.848;2023-04-04T06:46:40;99609.25;;;23.15;37.65
47785;BME280;35233;55.686;37.848;2023-04-04T06:49:05;99618.09;;;23.17;37.62
47785;BME280;35233;55.686;37.848;2023-04-04T06:51:33;99622.38;;;23.19;37.69
47785;BME280;35233;55.686;37.848;2023-04-04T06:53:59;99612.94;;;23.25;37.40
47785;BME280;35233;55.686;37.848;2023-04-04T06:56:25;99607.41;;;23.26;37.33
47785;BME280;35233;55.686;37.848;2023-04-04T06:58:51;99611.31;;;23.34;37.19
47785;BME280;35233;55.686;37.848;2023-04-04T07:01:17;99602.84;;;23.38;37.26
47785;BME280;35233;55.686;37.848;2023-04-04T07:03:42;99610.66;;;23.41;37.23
47785;BME280;35233;55.686;37.848;2023-04-04T07:06:09;99608.63;;;23.34;37.30
47785;BME280;35233;55.686;37.848;2023-04-04T07:08:35;99614.03;;;23.34;37.35
47785;BME280;35233;55.686;37.848;2023-04-04T07:11:01;99612.91;;;23.36;37.40
47785;BME280;35233;55.686;37.848;2023-04-04T07:13:26;99615.09;;;23.42;37.15
47785;BME280;35233;55.686;37.848;2023-04-04T07:15:52;99613.00;;;23.46;37.21
47785;BME280;35233;55.686;37.848;2023-04-04T07:18:18;99607.00;;;23.42;37.13
47785;BME280;35233;55.686;37.848;2023-04-04T07:20:46;99615.44;;;23.49;37.06
47785;BME280;35233;55.686;37.848;2023-04-04T07:23:12;99613.00;;;23.46;36.86
47785;BME280;35233;55.686;37.848;2023-04-04T07:25:39;99618.03;;;23.50;37.11
47785;BME280;35233;55.686;37.848;2023-04-04T07:28:05;99613.59;;;23.49;36.97
47785;BME280;35233;55.686;37.848;2023-04-04T07:30:31;99614.59;;;23.48;37.02
47785;BME280;35233;55.686;37.848;2023-04-04T07:32:58;99610.41;;;23.44;36.85
47785;BME280;35233;55.686;37.848;2023-04-04T07:35:23;99624.13;;;23.53;36.90
47785;BME280;35233;55.686;37.848;2023-04-04T07:37:49;99611.91;;;23.48;36.81
47785;BME280;35233;55.686;37.848;2023-04-04T07:40:15;99619.72;;;23.52;36.88
47785;BME280;35233;55.686;37.848;2023-04-04T07:42:47;99624.88;;;23.55;36.71
47785;BME280;35233;55.686;37.848;2023-04-04T07:45:16;99609.69;;;23.54;36.84
47785;BME280;35233;55.686;37.848;2023-04-04T07:47:43;99605.41;;;23.51;36.64
47785;BME280;35233;55.686;37.848;2023-04-04T07:50:09;99606.25;;;23.52;36.62
47785;BME280;35233;55.686;37.848;2023-04-04T07:52:36;99612.22;;;23.55;36.50
47785;BME280;35233;55.686;37.848;2023-04-04T07:55:01;99620.91;;;23.59;36.56
47785;BME280;35233;55.686;37.848;2023-04-04T07:57:28;99625.34;;;23.60;36.63
47785;BME280;35233;55.686;37.848;2023-04-04T07:59:53;99602.69;;;23.51;36.42
47785;BME280;35233;55.686;37.848;2023-04-04T08:02:19;99627.38;;;23.67;36.56
47785;BME280;35233;55.686;37.848;2023-04-04T08:04:44;99622.50;;;23.72;36.50
47785;BME280;35233;55.686;37.848;2023-04-04T08:07:10;99616.28;;;23.72;36.36
47785;BME280;35233;55.686;37.848;2023-04-04T08:09:35;99617.44;;;23.79;36.20
47785;BME280;35233;55.686;37.848;2023-04-04T08:12:01;99628.13;;;23.81;36.10
47785;BME280;35233;55.686;37.848;2023-04-04T08:14:27;99624.69;;;23.79;36.24
47785;BME280;35233;55.686;37.848;2023-04-04T08:16:53;99632.66;;;23.80;36.21
47785;BME280;35233;55.686;37.848;2023-04-04T08:19:19;99625.53;;;23.79;36.10
47785;BME280;35233;55.686;37.848;2023-04-04T08:21:45;99596.13;;;23.65;36.40
47785;BME280;35233;55.686;37.848;2023-04-04T08:24:11;99615.75;;;23.78;36.05
47785;BME280;35233;55.686;37.848;2023-04-04T08:26:36;99616.56;;;23.90;36.03
47785;BME280;35233;55.686;37.848;2023-04-04T08:29:02;99624.72;;;24.00;35.82
47785;BME280;35233;55.686;37.848;2023-04-04T08:31:27;99602.97;;;23.91;35.66
47785;BME280;35233;55.686;37.848;2023-04-04T08:33:54;99621.84;;;24.12;35.71
47785;BME280;35233;55.686;37.848;2023-04-04T08:36:20;99620.94;;;24.23;35.32
47785;BME280;35233;55.686;37.848;2023-04-04T08:38:45;99618.03;;;24.36;35.24
47785;BME280;35233;55.686;37.848;2023-04-04T08:41:11;99618.50;;;24.41;35.44
47785;BME280;35233;55.686;37.848;2023-04-04T08:43:38;99601.69;;;24.37;35.29
47785;BME280;35233;55.686;37.848;2023-04-04T08:46:07;99612.38;;;24.39;35.35
47785;BME280;35233;55.686;37.848;2023-04-04T08:48:34;99612.06;;;24.32;35.37
47785;BME280;35233;55.686;37.848;2023-04-04T08:51:02;99609.75;;;24.28;35.27
47785;BME280;35233;55.686;37.848;2023-04-04T08:53:30;99590.06;;;24.16;35.63
47785;BME280;35233;55.686;37.848;2023-04-04T08:55:58;99609.16;;;24.24;35.69
47785;BME280;35233;55.686;37.848;2023-04-04T08:58:24;99616.66;;;24.21;35.64
47785;BME280;35233;55.686;37.848;2023-04-04T09:00:52;99614.81;;;24.21;35.57
47785;BME280;35233;55.686;37.848;2023-04-04T09:03:23;99624.63;;;24.22;36.04
47785;BME280;35233;55.686;37.848;2023-04-04T09:05:51;99621.81;;;24.24;35.88
47785;BME280;35233;55.686;37.848;2023-04-04T09:08:17;99622.38;;;24.27;35.55
47785;BME280;35233;55.686;37.848;2023-04-04T09:10:44;99625.56;;;24.32;35.58
47785;BME280;35233;55.686;37.848;2023-04-04T09:13:10;99614.13;;;24.29;35.51
47785;BME280;35233;55.686;37.848;2023-04-04T09:15:40;99632.66;;;24.33;35.69
47785;BME280;35233;55.686;37.848;2023-04-04T09:18:08;99628.06;;;24.24;36.02
47785;BME280;35233;55.686;37.848;2023-04-04T09:20:36;99635.88;;;24.27;35.95
47785;BME280;35233;55.686;37.848;2023-04-04T09:23:07;99638.31;;;24.30;35.78
47785;BME280;35233;55.686;37.848;2023-04-04T09:25:34;99640.03;;;24.31;35.78
47785;BME280;35233;55.686;37.848;2023-04-04T09:28:01;99645.31;;;24.33;35.69
47785;BME280;35233;55.686;37.848;2023-04-04T09:30:29;99648.38;;;24.28;36.05
47785;BME280;35233;55.686;37.848;2023-04-04T09:32:55;99640.06;;;24.20;35.86
47785;BME280;35233;55.686;37.848;2023-04-04T09:35:22;99648.31;;;24.18;35.99
47785;BME280;35233;55.686;37.848;2023-04-04T09:37:47;99652.03;;;24.17;35.90
47785;BME280;35233;55.686;37.848;2023-04-04T09:40:13;99632.91;;;24.09;36.04
47785;BME280;35233;55.686;37.848;2023-04-04T09:42:40;99647.47;;;24.18;35.68
47785;BME280;35233;55.686;37.848;2023-04-04T09:45:06;99646.47;;;24.19;35.73
47785;BME280;35233;55.686;37.848;2023-04-04T09:47:39;99629.81;;;24.14;35.82
47785;BME280;35233;55.686;37.848;2023-04-04T09:50:06;99634.19;;;24.26;35.73
47785;BME280;35233;55.686;37.848;2023-04-04T09:52:32;99647.16;;;24.32;35.65
47785;BME280;35233;55.686;37.848;2023-04-04T09:55:01;99644.97;;;24.26;35.83
47785;BME280;35233;55.686;37.848;2023-04-04T09:57:31;99643.97;;;24.27;35.48
47785;BME280;35233;55.686;37.848;2023-04-04T10:00:00;99657.94;;;24.32;35.57
47785;BME280;35233;55.686;37.848;2023-04-04T10:02:47;99652.28;;;24.35;35.52
47785;BME280;35233;55.686;37.848;2023-04-04T10:05:15;99642.88;;;24.30;35.69
47785;BME280;35233;55.686;37.848;2023-04-04T10:07:41;99645.88;;;24.36;35.44
47785;BME280;35233;55.686;37.848;2023-04-04T10:10:08;99657.03;;;24.43;35.37
47785;BME280;35233;55.686;37.848;2023-04-04T10:12:52;99649.31;;;24.38;35.53
47785;BME280;35233;55.686;37.848;2023-04-04T10:15:18;99653.72;;;24.39;35.53
47785;BME280;35233;55.686;37.848;2023-04-04T10:17:47;99636.47;;;24.31;35.42
47785;BME280;35233;55.686;37.848;2023-04-04T10:20:14;99657.28;;;24.40;35.23
47785;BME280;35233;55.686;37.848;2023-04-04T10:22:42;99645.31;;;24.33;35.29
47785;BME280;35233;55.686;37.848;2023-04-04T10:25:08;99653.72;;;24.39;35.18
47785;BME280;35233;55.686;37.848;2023-04-04T10:27:34;99648.22;;;24.41;35.23
47785;BME280;35233;55.686;37.848;2023-04-04T10:30:00;99651.66;;;24.43;35.26
47785;BME280;35233;55.686;37.848;2023-04-04T10:35:13;99650.41;;;24.47;35.01
47785;BME280;35233;55.686;37.848;2023-04-04T10:37:47;99657.13;;;24.53;35.11
47785;BME280;35233;55.686;37.848;2023-04-04T10:40:15;99661.78;;;24.51;35.14
47785;BME280;35233;55.686;37.848;2023-04-04T10:42:44;99663.69;;;24.60;34.78
47785;BME280;35233;55.686;37.848;2023-04-04T10:45:12;99674.38;;;24.61;34.77
47785;BME280;35233;55.686;37.848;2023-04-04T10:47:39;99667.97;;;24.62;35.00
47785;BME280;35233;55.686;37.848;2023-04-04T10:50:06;99661.00;;;24.60;34.64
47785;BME280;35233;55.686;37.848;2023-04-04T10:52:35;99657.56;;;24.58;35.08
47785;BME280;35233;55.686;37.848;2023-04-04T10:55:07;99671.06;;;24.58;34.79
47785;BME280;35233;55.686;37.848;2023-04-04T11:00:28;99671.47;;;24.53;35.05
47785;BME280;35233;55.686;37.848;2023-04-04T11:02:55;99665.63;;;24.48;34.95
47785;BME280;35233;55.686;37.848;2023-04-04T11:08:02;99662.25;;;24.56;34.83
47785;BME280;35233;55.686;37.848;2023-04-04T11:10:29;99662.72;;;24.61;34.92
47785;BME280;35233;55.686;37.848;2023-04-04T11:12:56;99650.94;;;24.62;34.61
47785;BME280;35233;55.686;37.848;2023-04-04T11:21:05;99648.75;;;24.56;34.76
47785;BME280;35233;55.686;37.848;2023-04-04T11:26:12;99651.47;;;24.56;35.09
47785;BME280;35233;55.686;37.848;2023-04-04T11:34:01;99661.00;;;24.60;34.80
47785;BME280;35233;55.686;37.848;2023-04-04T11:44:38;99659.56;;;24.56;34.92
47785;BME280;35233;55.686;37.848;2023-04-04T11:49:33;99661.53;;;24.54;35.21
47785;BME280;35233;55.686;37.848;2023-04-04T11:52:06;99652.53;;;24.44;35.14
47785;BME280;35233;55.686;37.848;2023-04-04T11:54:33;99664.75;;;24.48;35.21
47785;BME280;35233;55.686;37.848;2023-04-04T11:57:17;99661.31;;;24.46;35.00
47785;BME280;35233;55.686;37.848;2023-04-04T11:59:48;99660.72;;;24.42;35.03
47785;BME280;35233;55.686;37.848;2023-04-04T12:02:34;99669.81;;;24.41;35.47
47785;BME280;35233;55.686;37.848;2023-04-04T12:05:00;99671.03;;;24.37;35.12
47785;BME280;35233;55.686;37.848;2023-04-04T12:07:27;99666.91;;;24.33;35.11
47785;BME280;35233;55.686;37.848;2023-04-04T12:09:53;99675.00;;;24.33;35.57
47785;BME280;35233;55.686;37.848;2023-04-04T12:12:22;99670.47;;;24.33;35.26
47785;BME280;35233;55.686;37.848;2023-04-04T12:14:47;99670.59;;;24.32;35.23
47785;BME280;35233;55.686;37.848;2023-04-04T12:17:14;99670.47;;;24.33;35.39
47785;BME280;35233;55.686;37.848;2023-04-04T12:19:42;99663.09;;;24.35;35.37
47785;BME280;35233;55.686;37.848;2023-04-04T12:22:07;99649.97;;;24.31;35.24
47785;BME280;35233;55.686;37.848;2023-04-04T12:24:34;99654.25;;;24.33;35.06
47785;BME280;35233;55.686;37.848;2023-04-04T12:26:59;99672.03;;;24.36;34.91
47785;BME280;35233;55.686;37.848;2023-04-04T12:29:26;99673.03;;;24.35;35.19
47785;BME280;35233;55.686;37.848;2023-04-04T12:31:53;99672.41;;;24.31;35.14
47785;BME280;35233;55.686;37.848;2023-04-04T12:34:42;99669.97;;;24.28;35.41
47785;BME280;35233;55.686;37.848;2023-04-04T12:37:08;99677.97;;;24.30;35.10
47785;BME280;35233;55.686;37.848;2023-04-04T12:39:39;99679.06;;;24.27;35.23
47785;BME280;35233;55.686;37.848;2023-04-04T12:42:08;99671.25;;;24.24;35.17
47785;BME280;35233;55.686;37.848;2023-04-04T12:44:38;99667.53;;;24.25;35.23
47785;BME280;35233;55.686;37.848;2023-04-04T12:47:05;99682.50;;;24.29;35.38
47785;BME280;35233;55.686;37.848;2023-04-04T12:49:45;99683.38;;;24.30;35.00
47785;BME280;35233;55.686;37.848;2023-04-04T12:52:33;99685.59;;;24.25;35.25
47785;BME280;35233;55.686;37.848;2023-04-04T12:55:08;99682.63;;;24.28;35.27
47785;BME280;35233;55.686;37.848;2023-04-04T12:57:34;99681.63;;;24.29;35.17
47785;BME280;35233;55.686;37.848;2023-04-04T13:00:01;99683.09;;;24.33;35.33
47785;BME280;35233;55.686;37.848;2023-04-04T13:02:26;99684.69;;;24.35;34.97
47785;BME280;35233;55.686;37.848;2023-04-04T13:04:54;99689.34;;;24.33;35.19
47785;BME280;35233;55.686;37.848;2023-04-04T13:07:28;99684.94;;;24.32;34.92
47785;BME280;35233;55.686;37.848;2023-04-04T13:09:58;99690.09;;;24.35;34.94
47785;BME280;35233;55.686;37.848;2023-04-04T13:12:25;99686.66;;;24.33;34.93
47785;BME280;35233;55.686;37.848;2023-04-04T13:15:03;99680.06;;;24.26;35.41
47785;BME280;35233;55.686;37.848;2023-04-04T13:20:09;99698.56;;;24.31;35.01
47785;BME280;35233;55.686;37.848;2023-04-04T13:22:37;99701.41;;;24.29;35.43
47785;BME280;35233;55.686;37.848;2023-04-04T13:25:04;99707.06;;;24.26;35.14
47785;BME280;35233;55.686;37.848;2023-04-04T13:27:30;99709.78;;;24.26;35.35